Terminal Aerodrome Forecast
Issued by NWS

Home | Current Version | Previous Version | Text Only | Print | Product List | Glossary Off
Versions: 1 2 3 4 5 6 7 8 9 10 11 12 13 14

000
FTUS41 KCLE 181100
TAFFDY
TAF
KFDY 181130Z 1812/1912 20006KT P6SM SCT120 OVC200
     FM181500 27008KT P6SM VCSH SCT040 OVC100
     FM182100 31010KT P6SM SCT100 OVC200
     FM190200 36006KT P6SM BKN200=

USA.gov is the U.S. government's official web portal to all federal, state and local government web resources and services.